sensor_id;sensor_type;location;lat;lon;timestamp;temperature;humidity
47757;SHT35;22147;52.388;13.390;2022-10-20T00:01:27;5.66;88.88
47757;SHT35;22147;52.388;13.390;2022-10-20T00:03:55;5.62;88.98
47757;SHT35;22147;52.388;13.390;2022-10-20T00:06:32;5.58;89.09
47757;SHT35;22147;52.388;13.390;2022-10-20T00:09:03;5.62;89.23
47757;SHT35;22147;52.388;13.390;2022-10-20T00:11:32;5.63;89.23
47757;SHT35;22147;52.388;13.390;2022-10-20T00:14:01;5.62;89.25
47757;SHT35;22147;52.388;13.390;2022-10-20T00:16:35;5.58;89.23
47757;SHT35;22147;52.388;13.390;2022-10-20T00:19:03;5.58;89.22
47757;SHT35;22147;52.388;13.390;2022-10-20T00:21:32;5.51;89.21
47757;SHT35;22147;52.388;13.390;2022-10-20T00:24:02;5.46;89.36
47757;SHT35;22147;52.388;13.390;2022-10-20T00:26:32;5.46;89.57
47757;SHT35;22147;52.388;13.390;2022-10-20T00:29:03;5.46;89.50
47757;SHT35;22147;52.388;13.390;2022-10-20T00:31:31;5.46;89.58
47757;SHT35;22147;52.388;13.390;2022-10-20T00:33:58;5.41;89.57
47757;SHT35;22147;52.388;13.390;2022-10-20T00:36:25;5.43;89.63
47757;SHT35;22147;52.388;13.390;2022-10-20T00:39:01;5.38;89.54
47757;SHT35;22147;52.388;13.390;2022-10-20T00:41:31;5.36;89.52
47757;SHT35;22147;52.388;13.390;2022-10-20T00:47:27;5.35;89.76
47757;SHT35;22147;52.388;13.390;2022-10-20T00:50:13;5.32;89.80
47757;SHT35;22147;52.388;13.390;2022-10-20T00:52:45;5.32;89.75
47757;SHT35;22147;52.388;13.390;2022-10-20T00:55:23;5.30;89.79
47757;SHT35;22147;52.388;13.390;2022-10-20T00:57:56;5.30;89.94
47757;SHT35;22147;52.388;13.390;2022-10-20T01:00:26;5.24;89.93
47757;SHT35;22147;52.388;13.390;2022-10-20T01:03:00;5.22;89.99
47757;SHT35;22147;52.388;13.390;2022-10-20T01:05:27;5.17;90.00
47757;SHT35;22147;52.388;13.390;2022-10-20T01:07:54;5.13;90.10
47757;SHT35;22147;52.388;13.390;2022-10-20T01:10:33;5.14;90.26
47757;SHT35;22147;52.388;13.390;2022-10-20T01:13:31;5.20;90.33
47757;SHT35;22147;52.388;13.390;2022-10-20T01:16:50;5.15;90.28
47757;SHT35;22147;52.388;13.390;2022-10-20T01:19:50;5.10;90.14
47757;SHT35;22147;52.388;13.390;2022-10-20T01:22:47;5.14;90.28
47757;SHT35;22147;52.388;13.390;2022-10-20T01:29:18;5.08;89.98
47757;SHT35;22147;52.388;13.390;2022-10-20T01:32:08;5.07;90.00
47757;SHT35;22147;52.388;13.390;2022-10-20T01:34:59;5.00;89.91
47757;SHT35;22147;52.388;13.390;2022-10-20T01:40:28;4.95;90.17
47757;SHT35;22147;52.388;13.390;2022-10-20T01:43:07;4.93;90.18
47757;SHT35;22147;52.388;13.390;2022-10-20T01:45:44;4.93;90.16
47757;SHT35;22147;52.388;13.390;2022-10-20T01:48:17;4.91;90.10
47757;SHT35;22147;52.388;13.390;2022-10-20T01:50:48;4.95;90.13
47757;SHT35;22147;52.388;13.390;2022-10-20T01:53:16;4.93;90.04
47757;SHT35;22147;52.388;13.390;2022-10-20T01:55:43;4.91;90.06
47757;SHT35;22147;52.388;13.390;2022-10-20T02:08:27;4.83;90.10
47757;SHT35;22147;52.388;13.390;2022-10-20T02:11:03;4.81;90.15
47757;SHT35;22147;52.388;13.390;2022-10-20T02:13:37;4.79;90.19
47757;SHT35;22147;52.388;13.390;2022-10-20T02:16:24;4.73;90.21
47757;SHT35;22147;52.388;13.390;2022-10-20T02:18:57;4.72;90.35
47757;SHT35;22147;52.388;13.390;2022-10-20T02:21:47;4.74;90.43
47757;SHT35;22147;52.388;13.390;2022-10-20T02:24:23;4.74;90.45
47757;SHT35;22147;52.388;13.390;2022-10-20T02:27:02;4.74;90.35
47757;SHT35;22147;52.388;13.390;2022-10-20T02:29:43;4.76;90.37
47757;SHT35;22147;52.388;13.390;2022-10-20T02:32:14;4.69;90.41
47757;SHT35;22147;52.388;13.390;2022-10-20T02:34:43;4.69;90.53
47757;SHT35;22147;52.388;13.390;2022-10-20T02:37:10;4.65;90.51
47757;SHT35;22147;52.388;13.390;2022-10-20T02:39:37;4.66;90.58
47757;SHT35;22147;52.388;13.390;2022-10-20T02:42:05;4.67;90.62
47757;SHT35;22147;52.388;13.390;2022-10-20T02:44:35;4.66;90.62
47757;SHT35;22147;52.388;13.390;2022-10-20T02:47:02;4.67;90.56
47757;SHT35;22147;52.388;13.390;2022-10-20T02:49:29;4.67;90.51
47757;SHT35;22147;52.388;13.390;2022-10-20T02:51:56;4.65;90.50
47757;SHT35;22147;52.388;13.390;2022-10-20T02:54:23;4.56;90.64
47757;SHT35;22147;52.388;13.390;2022-10-20T02:56:50;4.55;90.76
47757;SHT35;22147;52.388;13.390;2022-10-20T02:59:17;4.55;90.81
47757;SHT35;22147;52.388;13.390;2022-10-20T03:01:43;4.50;90.83
47757;SHT35;22147;52.388;13.390;2022-10-20T03:04:12;4.50;90.80
47757;SHT35;22147;52.388;13.390;2022-10-20T03:06:40;4.52;90.77
47757;SHT35;22147;52.388;13.390;2022-10-20T03:09:07;4.53;90.75
47757;SHT35;22147;52.388;13.390;2022-10-20T03:11:34;4.52;90.75
47757;SHT35;22147;52.388;13.390;2022-10-20T03:14:02;4.50;90.69
47757;SHT35;22147;52.388;13.390;2022-10-20T03:16:29;4.49;90.68
47757;SHT35;22147;52.388;13.390;2022-10-20T03:18:56;4.46;90.69
47757;SHT35;22147;52.388;13.390;2022-10-20T03:21:29;4.45;90.72
47757;SHT35;22147;52.388;13.390;2022-10-20T03:23:56;4.41;90.72
47757;SHT35;22147;52.388;13.390;2022-10-20T03:26:23;4.34;90.84
47757;SHT35;22147;52.388;13.390;2022-10-20T03:28:50;4.31;90.88
47757;SHT35;22147;52.388;13.390;2022-10-20T03:31:17;4.31;91.08
47757;SHT35;22147;52.388;13.390;2022-10-20T03:33:44;4.35;91.14
47757;SHT35;22147;52.388;13.390;2022-10-20T03:36:11;4.34;91.20
47757;SHT35;22147;52.388;13.390;2022-10-20T03:38:41;4.32;91.27
47757;SHT35;22147;52.388;13.390;2022-10-20T03:41:10;4.26;91.25
47757;SHT35;22147;52.388;13.390;2022-10-20T03:43:41;4.29;91.41
47757;SHT35;22147;52.388;13.390;2022-10-20T03:46:10;4.28;91.43
47757;SHT35;22147;52.388;13.390;2022-10-20T03:48:39;4.26;91.40
47757;SHT35;22147;52.388;13.390;2022-10-20T03:51:07;4.22;91.38
47757;SHT35;22147;52.388;13.390;2022-10-20T03:53:35;4.16;91.34
47757;SHT35;22147;52.388;13.390;2022-10-20T03:56:15;4.24;91.44
47757;SHT35;22147;52.388;13.390;2022-10-20T03:58:43;4.15;91.36
47757;SHT35;22147;52.388;13.390;2022-10-20T04:01:16;4.15;91.39
47757;SHT35;22147;52.388;13.390;2022-10-20T04:03:44;4.16;91.52
47757;SHT35;22147;52.388;13.390;2022-10-20T04:06:13;4.18;91.49
47757;SHT35;22147;52.388;13.390;2022-10-20T04:08:41;4.15;91.49
47757;SHT35;22147;52.388;13.390;2022-10-20T04:11:08;4.15;91.44
47757;SHT35;22147;52.388;13.390;2022-10-20T04:13:35;4.12;91.43
47757;SHT35;22147;52.388;13.390;2022-10-20T04:16:02;4.12;91.46
47757;SHT35;22147;52.388;13.390;2022-10-20T04:18:30;4.12;91.48
47757;SHT35;22147;52.388;13.390;2022-10-20T04:20:57;4.11;91.55
47757;SHT35;22147;52.388;13.390;2022-10-20T04:23:24;4.11;91.63
47757;SHT35;22147;52.388;13.390;2022-10-20T04:25:51;4.09;91.76
47757;SHT35;22147;52.388;13.390;2022-10-20T04:28:19;4.09;91.80
47757;SHT35;22147;52.388;13.390;2022-10-20T04:30:47;4.08;91.84
47757;SHT35;22147;52.388;13.390;2022-10-20T04:33:15;4.09;91.85
47757;SHT35;22147;52.388;13.390;2022-10-20T04:35:42;4.09;91.85
47757;SHT35;22147;52.388;13.390;2022-10-20T04:38:10;4.05;91.78
47757;SHT35;22147;52.388;13.390;2022-10-20T04:40:36;4.07;91.87
47757;SHT35;22147;52.388;13.390;2022-10-20T04:43:03;3.99;91.92
47757;SHT35;22147;52.388;13.390;2022-10-20T04:45:30;3.98;92.00
47757;SHT35;22147;52.388;13.390;2022-10-20T04:47:57;4.07;92.14
47757;SHT35;22147;52.388;13.390;2022-10-20T04:50:24;4.08;92.10
47757;SHT35;22147;52.388;13.390;2022-10-20T04:52:51;4.07;92.15
47757;SHT35;22147;52.388;13.390;2022-10-20T04:55:18;4.08;92.11
47757;SHT35;22147;52.388;13.390;2022-10-20T04:57:45;4.08;92.11
47757;SHT35;22147;52.388;13.390;2022-10-20T05:00:13;4.05;92.02
47757;SHT35;22147;52.388;13.390;2022-10-20T05:02:40;4.08;92.07
47757;SHT35;22147;52.388;13.390;2022-10-20T05:05:08;4.04;91.99
47757;SHT35;22147;52.388;13.390;2022-10-20T05:07:35;4.04;91.97
47757;SHT35;22147;52.388;13.390;2022-10-20T05:10:03;4.01;91.98
47757;SHT35;22147;52.388;13.390;2022-10-20T05:12:30;3.99;92.00
47757;SHT35;22147;52.388;13.390;2022-10-20T05:14:57;3.99;92.02
47757;SHT35;22147;52.388;13.390;2022-10-20T05:17:24;3.95;92.00
47757;SHT35;22147;52.388;13.390;2022-10-20T05:19:51;3.95;92.00
47757;SHT35;22147;52.388;13.390;2022-10-20T05:22:18;3.90;92.05
47757;SHT35;22147;52.388;13.390;2022-10-20T05:24:45;3.90;92.09
47757;SHT35;22147;52.388;13.390;2022-10-20T05:27:12;3.90;92.12
47757;SHT35;22147;52.388;13.390;2022-10-20T05:29:39;3.88;92.11
47757;SHT35;22147;52.388;13.390;2022-10-20T05:32:05;3.91;92.16
47757;SHT35;22147;52.388;13.390;2022-10-20T05:34:32;3.91;92.17
47757;SHT35;22147;52.388;13.390;2022-10-20T05:36:59;3.97;92.22
47757;SHT35;22147;52.388;13.390;2022-10-20T05:39:26;4.02;92.15
47757;SHT35;22147;52.388;13.390;2022-10-20T05:41:53;4.01;91.97
47757;SHT35;22147;52.388;13.390;2022-10-20T05:44:20;3.88;92.03
47757;SHT35;22147;52.388;13.390;2022-10-20T05:46:46;4.02;92.18
47757;SHT35;22147;52.388;13.390;2022-10-20T05:49:16;3.98;92.06
47757;SHT35;22147;52.388;13.390;2022-10-20T05:51:45;3.98;92.08
47757;SHT35;22147;52.388;13.390;2022-10-20T05:54:14;3.95;92.09
47757;SHT35;22147;52.388;13.390;2022-10-20T05:56:41;3.98;92.22
47757;SHT35;22147;52.388;13.390;2022-10-20T05:59:09;3.97;92.24
47757;SHT35;22147;52.388;13.390;2022-10-20T06:01:37;4.01;92.27
47757;SHT35;22147;52.388;13.390;2022-10-20T06:04:21;4.04;92.29
47757;SHT35;22147;52.388;13.390;2022-10-20T06:06:51;4.09;92.13
47757;SHT35;22147;52.388;13.390;2022-10-20T06:09:21;4.19;91.92
47757;SHT35;22147;52.388;13.390;2022-10-20T06:11:51;4.11;91.86
47757;SHT35;22147;52.388;13.390;2022-10-20T06:14:19;4.11;91.75
47757;SHT35;22147;52.388;13.390;2022-10-20T06:16:53;4.11;91.82
47757;SHT35;22147;52.388;13.390;2022-10-20T06:19:23;4.14;91.99
47757;SHT35;22147;52.388;13.390;2022-10-20T06:21:51;4.16;91.98
47757;SHT35;22147;52.388;13.390;2022-10-20T06:24:19;4.19;91.89
47757;SHT35;22147;52.388;13.390;2022-10-20T06:26:46;4.21;91.74
47757;SHT35;22147;52.388;13.390;2022-10-20T06:29:19;4.25;91.76
47757;SHT35;22147;52.388;13.390;2022-10-20T06:31:50;4.28;91.69
47757;SHT35;22147;52.388;13.390;2022-10-20T06:34:24;4.28;91.57
47757;SHT35;22147;52.388;13.390;2022-10-20T06:36:51;4.26;91.58
47757;SHT35;22147;52.388;13.390;2022-10-20T06:39:23;4.26;91.48
47757;SHT35;22147;52.388;13.390;2022-10-20T06:41:53;4.34;91.62
47757;SHT35;22147;52.388;13.390;2022-10-20T06:44:23;4.39;91.39
47757;SHT35;22147;52.388;13.390;2022-10-20T06:46:50;4.45;91.52
47757;SHT35;22147;52.388;13.390;2022-10-20T06:49:22;4.52;91.31
47757;SHT35;22147;52.388;13.390;2022-10-20T06:51:49;4.69;91.03
47757;SHT35;22147;52.388;13.390;2022-10-20T06:54:17;4.73;90.65
47757;SHT35;22147;52.388;13.390;2022-10-20T06:56:44;4.84;90.53
47757;SHT35;22147;52.388;13.390;2022-10-20T06:59:12;4.94;90.32
47757;SHT35;22147;52.388;13.390;2022-10-20T07:01:39;4.95;90.15
47757;SHT35;22147;52.388;13.390;2022-10-20T07:04:14;5.07;89.84
47757;SHT35;22147;52.388;13.390;2022-10-20T07:06:45;5.18;89.64
47757;SHT35;22147;52.388;13.390;2022-10-20T07:09:18;5.27;89.48
47757;SHT35;22147;52.388;13.390;2022-10-20T07:11:51;5.36;89.60
47757;SHT35;22147;52.388;13.390;2022-10-20T07:14:19;5.48;88.85
47757;SHT35;22147;52.388;13.390;2022-10-20T07:16:46;5.65;88.93
47757;SHT35;22147;52.388;13.390;2022-10-20T07:19:13;5.72;88.35
47757;SHT35;22147;52.388;13.390;2022-10-20T07:21:40;5.87;88.17
47757;SHT35;22147;52.388;13.390;2022-10-20T07:24:11;6.01;87.84
47757;SHT35;22147;52.388;13.390;2022-10-20T07:26:41;6.11;87.82
47757;SHT35;22147;52.388;13.390;2022-10-20T07:29:10;6.24;87.62
47757;SHT35;22147;52.388;13.390;2022-10-20T07:31:43;6.44;86.68
47757;SHT35;22147;52.388;13.390;2022-10-20T07:34:14;6.55;86.27
47757;SHT35;22147;52.388;13.390;2022-10-20T07:36:57;6.62;86.84
47757;SHT35;22147;52.388;13.390;2022-10-20T07:39:26;6.83;86.35
47757;SHT35;22147;52.388;13.390;2022-10-20T07:41:53;6.92;85.64
47757;SHT35;22147;52.388;13.390;2022-10-20T07:44:20;7.00;85.96
47757;SHT35;22147;52.388;13.390;2022-10-20T07:46:47;7.14;85.31
47757;SHT35;22147;52.388;13.390;2022-10-20T07:49:14;7.24;85.60
47757;SHT35;22147;52.388;13.390;2022-10-20T07:52:01;7.48;85.39
47757;SHT35;22147;52.388;13.390;2022-10-20T07:54:27;7.58;85.07
47757;SHT35;22147;52.388;13.390;2022-10-20T07:56:54;7.76;84.53
47757;SHT35;22147;52.388;13.390;2022-10-20T07:59:21;7.78;84.95
47757;SHT35;22147;52.388;13.390;2022-10-20T08:01:48;7.89;84.84
47757;SHT35;22147;52.388;13.390;2022-10-20T08:04:15;8.07;84.34
47757;SHT35;22147;52.388;13.390;2022-10-20T08:06:42;8.26;83.11
47757;SHT35;22147;52.388;13.390;2022-10-20T08:09:10;8.14;83.17
47757;SHT35;22147;52.388;13.390;2022-10-20T08:11:37;8.19;84.60
47757;SHT35;22147;52.388;13.390;2022-10-20T08:14:04;8.33;83.97
47757;SHT35;22147;52.388;13.390;2022-10-20T08:16:31;8.44;83.48
47757;SHT35;22147;52.388;13.390;2022-10-20T08:18:59;8.60;82.74
47757;SHT35;22147;52.388;13.390;2022-10-20T08:21:27;8.75;82.19
47757;SHT35;22147;52.388;13.390;2022-10-20T08:23:54;8.86;82.84
47757;SHT35;22147;52.388;13.390;2022-10-20T08:26:26;9.03;81.62
47757;SHT35;22147;52.388;13.390;2022-10-20T08:28:54;9.15;80.74
47757;SHT35;22147;52.388;13.390;2022-10-20T08:31:22;9.27;80.22
47757;SHT35;22147;52.388;13.390;2022-10-20T08:33:50;9.47;80.11
47757;SHT35;22147;52.388;13.390;2022-10-20T08:36:20;9.51;79.67
47757;SHT35;22147;52.388;13.390;2022-10-20T08:38:47;9.64;79.76
47757;SHT35;22147;52.388;13.390;2022-10-20T08:41:31;9.81;78.26
47757;SHT35;22147;52.388;13.390;2022-10-20T08:44:29;9.97;78.64
47757;SHT35;22147;52.388;13.390;2022-10-20T08:47:03;10.11;78.90
47757;SHT35;22147;52.388;13.390;2022-10-20T08:49:34;10.23;78.41
47757;SHT35;22147;52.388;13.390;2022-10-20T08:52:02;10.29;76.82
47757;SHT35;22147;52.388;13.390;2022-10-20T08:54:33;10.25;76.98
47757;SHT35;22147;52.388;13.390;2022-10-20T08:57:00;10.20;77.45
47757;SHT35;22147;52.388;13.390;2022-10-20T08:59:35;10.26;77.64
47757;SHT35;22147;52.388;13.390;2022-10-20T09:02:16;10.19;78.39
47757;SHT35;22147;52.388;13.390;2022-10-20T09:04:58;10.34;77.73
47757;SHT35;22147;52.388;13.390;2022-10-20T09:07:38;10.36;77.76
47757;SHT35;22147;52.388;13.390;2022-10-20T09:10:17;10.45;77.49
47757;SHT35;22147;52.388;13.390;2022-10-20T09:12:49;10.40;77.02
47757;SHT35;22147;52.388;13.390;2022-10-20T09:15:19;10.49;76.30
47757;SHT35;22147;52.388;13.390;2022-10-20T09:18:02;10.55;77.12
47757;SHT35;22147;52.388;13.390;2022-10-20T09:20:42;10.52;76.78
47757;SHT35;22147;52.388;13.390;2022-10-20T09:23:26;10.69;76.40
47757;SHT35;22147;52.388;13.390;2022-10-20T09:26:20;10.78;76.83
47757;SHT35;22147;52.388;13.390;2022-10-20T09:29:15;10.98;75.78
47757;SHT35;22147;52.388;13.390;2022-10-20T09:31:51;10.98;75.69
47757;SHT35;22147;52.388;13.390;2022-10-20T09:34:34;11.11;74.95
47757;SHT35;22147;52.388;13.390;2022-10-20T09:37:17;11.28;74.30
47757;SHT35;22147;52.388;13.390;2022-10-20T09:39:57;11.31;74.09
47757;SHT35;22147;52.388;13.390;2022-10-20T09:42:34;11.45;73.28
47757;SHT35;22147;52.388;13.390;2022-10-20T09:45:21;11.57;72.92
47757;SHT35;22147;52.388;13.390;2022-10-20T09:48:00;11.69;72.74
47757;SHT35;22147;52.388;13.390;2022-10-20T09:50:38;11.80;72.09
47757;SHT35;22147;52.388;13.390;2022-10-20T09:53:23;11.94;72.16
47757;SHT35;22147;52.388;13.390;2022-10-20T09:55:51;12.21;71.41
47757;SHT35;22147;52.388;13.390;2022-10-20T09:58:29;12.20;71.40
47757;SHT35;22147;52.388;13.390;2022-10-20T10:01:05;12.26;70.53
47757;SHT35;22147;52.388;13.390;2022-10-20T10:03:43;12.38;70.47
47757;SHT35;22147;52.388;13.390;2022-10-20T10:09:36;12.79;68.98
47757;SHT35;22147;52.388;13.390;2022-10-20T10:15:02;12.49;69.40
47757;SHT35;22147;52.388;13.390;2022-10-20T10:17:38;12.73;69.54
47757;SHT35;22147;52.388;13.390;2022-10-20T10:22:36;13.10;67.92
47757;SHT35;22147;52.388;13.390;2022-10-20T10:25:15;13.20;67.44
47757;SHT35;22147;52.388;13.390;2022-10-20T10:30:48;13.41;67.51
47757;SHT35;22147;52.388;13.390;2022-10-20T10:33:27;13.58;67.32
47757;SHT35;22147;52.388;13.390;2022-10-20T10:35:56;13.47;66.71
47757;SHT35;22147;52.388;13.390;2022-10-20T10:38:23;13.65;66.06
47757;SHT35;22147;52.388;13.390;2022-10-20T10:50:52;13.55;65.13
47757;SHT35;22147;52.388;13.390;2022-10-20T10:57:50;13.27;64.08
47757;SHT35;22147;52.388;13.390;2022-10-20T11:00:48;13.45;63.96
47757;SHT35;22147;52.388;13.390;2022-10-20T11:06:38;13.35;64.86
47757;SHT35;22147;52.388;13.390;2022-10-20T11:09:31;13.34;64.11
47757;SHT35;22147;52.388;13.390;2022-10-20T11:22:54;13.54;62.93
47757;SHT35;22147;52.388;13.390;2022-10-20T11:28:38;13.69;62.76
47757;SHT35;22147;52.388;13.390;2022-10-20T11:37:40;13.75;62.94
47757;SHT35;22147;52.388;13.390;2022-10-20T11:43:07;13.79;63.34
47757;SHT35;22147;52.388;13.390;2022-10-20T11:45:56;13.76;63.07
47757;SHT35;22147;52.388;13.390;2022-10-20T11:48:42;13.85;63.21
47757;SHT35;22147;52.388;13.390;2022-10-20T11:51:58;14.06;61.15
47757;SHT35;22147;52.388;13.390;2022-10-20T12:01:02;13.83;62.27
47757;SHT35;22147;52.388;13.390;2022-10-20T12:13:35;13.86;62.38
47757;SHT35;22147;52.388;13.390;2022-10-20T12:16:04;13.93;62.48
47757;SHT35;22147;52.388;13.390;2022-10-20T12:18:35;13.98;61.89
47757;SHT35;22147;52.388;13.390;2022-10-20T12:21:08;14.17;60.92
47757;SHT35;22147;52.388;13.390;2022-10-20T12:35:25;14.45;60.54
47757;SHT35;22147;52.388;13.390;2022-10-20T12:38:02;14.42;60.73
47757;SHT35;22147;52.388;13.390;2022-10-20T12:40:47;14.40;60.59
47757;SHT35;22147;52.388;13.390;2022-10-20T12:44:04;14.53;60.45
47757;SHT35;22147;52.388;13.390;2022-10-20T12:46:51;14.53;60.13
47757;SHT35;22147;52.388;13.390;2022-10-20T12:49:37;14.53;61.75
47757;SHT35;22147;52.388;13.390;2022-10-20T12:52:19;14.48;61.40
47757;SHT35;22147;52.388;13.390;2022-10-20T12:55:30;14.54;62.03
47757;SHT35;22147;52.388;13.390;2022-10-20T13:14:14;14.81;58.04
47757;SHT35;22147;52.388;13.390;2022-10-20T13:17:21;14.84;57.02
47757;SHT35;22147;52.388;13.390;2022-10-20T13:20:16;14.91;58.36
47757;SHT35;22147;52.388;13.390;2022-10-20T13:22:53;14.85;57.90
47757;SHT35;22147;52.388;13.390;2022-10-20T13:25:47;14.86;58.06
47757;SHT35;22147;52.388;13.390;2022-10-20T13:28:26;14.85;57.83
47757;SHT35;22147;52.388;13.390;2022-10-20T13:34:36;14.68;58.64
47757;SHT35;22147;52.388;13.390;2022-10-20T13:40:24;14.45;58.50
47757;SHT35;22147;52.388;13.390;2022-10-20T13:51:48;14.53;60.41
47757;SHT35;22147;52.388;13.390;2022-10-20T13:54:36;14.51;60.16
47757;SHT35;22147;52.388;13.390;2022-10-20T13:57:17;14.54;60.12
47757;SHT35;22147;52.388;13.390;2022-10-20T14:00:14;14.57;59.84
47757;SHT35;22147;52.388;13.390;2022-10-20T14:03:03;14.45;59.43
47757;SHT35;22147;52.388;13.390;2022-10-20T14:05:38;14.45;59.46
47757;SHT35;22147;52.388;13.390;2022-10-20T14:08:13;14.41;59.79
47757;SHT35;22147;52.388;13.390;2022-10-20T14:11:03;14.31;60.25
47757;SHT35;22147;52.388;13.390;2022-10-20T14:13:35;14.23;61.56
47757;SHT35;22147;52.388;13.390;2022-10-20T14:16:19;14.14;62.41
47757;SHT35;22147;52.388;13.390;2022-10-20T14:19:09;14.06;61.54
47757;SHT35;22147;52.388;13.390;2022-10-20T14:21:45;14.03;61.94
47757;SHT35;22147;52.388;13.390;2022-10-20T14:24:33;14.02;61.72
47757;SHT35;22147;52.388;13.390;2022-10-20T14:27:19;14.07;61.60
47757;SHT35;22147;52.388;13.390;2022-10-20T14:29:52;14.02;62.85
47757;SHT35;22147;52.388;13.390;2022-10-20T14:32:29;13.96;62.85
47757;SHT35;22147;52.388;13.390;2022-10-20T14:38:04;13.89;62.79
47757;SHT35;22147;52.388;13.390;2022-10-20T14:40:36;13.89;62.72
47757;SHT35;22147;52.388;13.390;2022-10-20T14:43:20;13.86;62.83
47757;SHT35;22147;52.388;13.390;2022-10-20T14:46:02;13.83;62.51
47757;SHT35;22147;52.388;13.390;2022-10-20T14:48:48;13.82;63.05
47757;SHT35;22147;52.388;13.390;2022-10-20T14:51:42;13.76;62.94
47757;SHT35;22147;52.388;13.390;2022-10-20T14:54:35;13.75;62.98
47757;SHT35;22147;52.388;13.390;2022-10-20T15:00:22;13.61;64.09
47757;SHT35;22147;52.388;13.390;2022-10-20T15:02:51;13.51;63.87
47757;SHT35;22147;52.388;13.390;2022-10-20T15:07:55;13.34;65.14
47757;SHT35;22147;52.388;13.390;2022-10-20T15:10:26;13.28;64.94
47757;SHT35;22147;52.388;13.390;2022-10-20T15:12:59;13.16;65.63
47757;SHT35;22147;52.388;13.390;2022-10-20T15:15:37;13.01;66.35
47757;SHT35;22147;52.388;13.390;2022-10-20T15:18:17;12.94;66.28
47757;SHT35;22147;52.388;13.390;2022-10-20T15:20:48;12.93;66.31
47757;SHT35;22147;52.388;13.390;2022-10-20T15:23:28;12.89;66.46
47757;SHT35;22147;52.388;13.390;2022-10-20T15:26:04;12.75;67.19
47757;SHT35;22147;52.388;13.390;2022-10-20T15:28:49;12.65;67.16
47757;SHT35;22147;52.388;13.390;2022-10-20T15:31:28;12.48;67.82
47757;SHT35;22147;52.388;13.390;2022-10-20T15:33:58;12.52;67.67
47757;SHT35;22147;52.388;13.390;2022-10-20T15:36:31;12.36;68.20
47757;SHT35;22147;52.388;13.390;2022-10-20T15:39:11;12.36;68.09
47757;SHT35;22147;52.388;13.390;2022-10-20T15:41:42;12.21;68.39
47757;SHT35;22147;52.388;13.390;2022-10-20T15:44:20;12.08;68.94
47757;SHT35;22147;52.388;13.390;2022-10-20T15:46:52;11.98;68.77
47757;SHT35;22147;52.388;13.390;2022-10-20T15:49:22;11.97;68.53
47757;SHT35;22147;52.388;13.390;2022-10-20T15:51:52;11.83;69.54
47757;SHT35;22147;52.388;13.390;2022-10-20T15:54:22;11.70;69.53
47757;SHT35;22147;52.388;13.390;2022-10-20T15:56:52;11.60;69.75
47757;SHT35;22147;52.388;13.390;2022-10-20T15:59:21;11.47;70.65
47757;SHT35;22147;52.388;13.390;2022-10-20T16:01:51;11.39;70.42
47757;SHT35;22147;52.388;13.390;2022-10-20T16:04:25;11.53;69.58
47757;SHT35;22147;52.388;13.390;2022-10-20T16:06:56;11.55;69.32
47757;SHT35;22147;52.388;13.390;2022-10-20T16:09:29;11.52;69.57
47757;SHT35;22147;52.388;13.390;2022-10-20T16:11:58;11.42;70.22
47757;SHT35;22147;52.388;13.390;2022-10-20T16:14:28;11.39;70.20
47757;SHT35;22147;52.388;13.390;2022-10-20T16:16:58;11.26;71.09
47757;SHT35;22147;52.388;13.390;2022-10-20T16:19:28;11.08;71.62
47757;SHT35;22147;52.388;13.390;2022-10-20T16:21:58;11.01;71.97
47757;SHT35;22147;52.388;13.390;2022-10-20T16:24:28;10.83;73.09
47757;SHT35;22147;52.388;13.390;2022-10-20T16:26:58;10.70;73.71
47757;SHT35;22147;52.388;13.390;2022-10-20T16:29:27;10.69;73.96
47757;SHT35;22147;52.388;13.390;2022-10-20T16:31:58;10.63;74.54
47757;SHT35;22147;52.388;13.390;2022-10-20T16:34:28;10.59;74.97
47757;SHT35;22147;52.388;13.390;2022-10-20T16:36:58;10.50;75.77
47757;SHT35;22147;52.388;13.390;2022-10-20T16:39:28;10.50;75.96
47757;SHT35;22147;52.388;13.390;2022-10-20T16:41:58;10.56;75.93
47757;SHT35;22147;52.388;13.390;2022-10-20T16:44:28;10.56;75.92
47757;SHT35;22147;52.388;13.390;2022-10-20T16:46:59;10.57;76.09
47757;SHT35;22147;52.388;13.390;2022-10-20T16:49:29;10.56;76.22
47757;SHT35;22147;52.388;13.390;2022-10-20T16:51:59;10.52;76.47
47757;SHT35;22147;52.388;13.390;2022-10-20T16:54:30;10.40;77.13
47757;SHT35;22147;52.388;13.390;2022-10-20T16:57:00;10.38;77.58
47757;SHT35;22147;52.388;13.390;2022-10-20T16:59:30;10.49;77.26
47757;SHT35;22147;52.388;13.390;2022-10-20T17:02:00;10.52;76.96
47757;SHT35;22147;52.388;13.390;2022-10-20T17:04:30;10.48;77.13
47757;SHT35;22147;52.388;13.390;2022-10-20T17:07:00;10.38;77.73
47757;SHT35;22147;52.388;13.390;2022-10-20T17:09:29;10.32;77.99
47757;SHT35;22147;52.388;13.390;2022-10-20T17:11:59;10.29;78.20
47757;SHT35;22147;52.388;13.390;2022-10-20T17:14:29;10.40;78.07
47757;SHT35;22147;52.388;13.390;2022-10-20T17:16:59;10.49;77.61
47757;SHT35;22147;52.388;13.390;2022-10-20T17:19:29;10.48;77.62
47757;SHT35;22147;52.388;13.390;2022-10-20T17:21:59;10.50;77.59
47757;SHT35;22147;52.388;13.390;2022-10-20T17:24:29;10.53;77.43
47757;SHT35;22147;52.388;13.390;2022-10-20T17:26:59;10.36;77.96
47757;SHT35;22147;52.388;13.390;2022-10-20T17:29:28;10.40;77.91
47757;SHT35;22147;52.388;13.390;2022-10-20T17:31:58;10.38;78.12
47757;SHT35;22147;52.388;13.390;2022-10-20T17:34:28;10.29;78.46
47757;SHT35;22147;52.388;13.390;2022-10-20T17:36:58;10.29;78.22
47757;SHT35;22147;52.388;13.390;2022-10-20T17:39:27;10.26;78.33
47757;SHT35;22147;52.388;13.390;2022-10-20T17:41:57;10.22;78.60
47757;SHT35;22147;52.388;13.390;2022-10-20T17:44:27;10.18;78.46
47757;SHT35;22147;52.388;13.390;2022-10-20T17:46:57;10.12;78.79
47757;SHT35;22147;52.388;13.390;2022-10-20T17:49:27;10.15;78.62
47757;SHT35;22147;52.388;13.390;2022-10-20T17:51:57;10.29;77.93
47757;SHT35;22147;52.388;13.390;2022-10-20T17:54:27;10.22;78.18
47757;SHT35;22147;52.388;13.390;2022-10-20T17:56:57;10.15;78.41
47757;SHT35;22147;52.388;13.390;2022-10-20T17:59:27;10.12;78.54
47757;SHT35;22147;52.388;13.390;2022-10-20T18:02:09;10.01;79.25
47757;SHT35;22147;52.388;13.390;2022-10-20T18:04:39;9.88;79.60
47757;SHT35;22147;52.388;13.390;2022-10-20T18:07:09;9.80;80.03
47757;SHT35;22147;52.388;13.390;2022-10-20T18:09:36;9.81;80.19
47757;SHT35;22147;52.388;13.390;2022-10-20T18:12:07;9.77;80.15
47757;SHT35;22147;52.388;13.390;2022-10-20T18:14:39;9.70;80.44
47757;SHT35;22147;52.388;13.390;2022-10-20T18:17:08;9.64;80.59
47757;SHT35;22147;52.388;13.390;2022-10-20T18:19:35;9.67;80.58
47757;SHT35;22147;52.388;13.390;2022-10-20T18:22:05;9.67;80.57
47757;SHT35;22147;52.388;13.390;2022-10-20T18:24:35;9.75;80.38